Time;durP1;ratioP1;P1;durP2;ratioP2;P2;SDS_P1;SDS_P2;PMS_P1;PMS_P2;Temp;Humidity;BMP_temperature;BMP_pressure;BME280_temperature;BME280_humidity;BME280_pressure;Samples;Min_cycle;Max_cycle;Signal;HPM_P1;HPM_P2
2023/10/18 00:02:48;;;;;;;;;;;7.50;48.70;;;6.10;53.06;101546.41;12259693;19;19922;-84
2023/10/18 00:06:54;;;;;;;;;;;7.40;48.70;;;5.79;53.18;101485.75;12258144;19;19915;-84
2023/10/18 00:10:59;;;;;;;;;;;7.60;48.90;;;6.15;53.29;101544.53;12255536;19;19911;-84
2023/10/18 00:15:01;;;;;;;;;;;7.30;48.90;;;5.63;53.01;101460.16;12252031;19;19919;-84
2023/10/18 00:19:03;;;;;;;;;;;7.30;48.80;;;6.04;53.18;101532.72;12254924;19;19927;-83
2023/10/18 00:23:04;;;;;;;;;;;7.20;48.80;;;6.00;53.11;101534.53;12257873;19;20322;-84
2023/10/18 00:27:09;;;;;;;;;;;7.20;48.80;;;5.98;53.14;101529.38;12255046;19;19935;-83
2023/10/18 00:31:18;;;;;;;;;;;7.20;48.90;;;5.95;53.07;101528.59;12253749;19;19922;-84
2023/10/18 00:35:20;;;;;;;;;;;7.20;49.30;;;5.85;53.17;101520.13;12256675;19;19964;-84
2023/10/18 00:39:28;;;;;;;;;;;7.20;49.00;;;5.79;53.02;101503.88;12258207;19;19923;-84
2023/10/18 00:43:30;;;;;;;;;;;7.20;49.00;;;5.91;53.22;101521.72;12269371;19;19948;-84
2023/10/18 00:47:33;;;;;;;;;;;7.20;49.00;;;5.64;53.28;101480.00;12265562;19;20272;-84
2023/10/18 00:51:35;;;;;;;;;;;7.20;49.00;;;5.73;53.15;101502.28;12267899;19;19914;-84
2023/10/18 00:55:37;;;;;;;;;;;7.20;48.90;;;5.53;53.37;101469.03;12266897;19;20289;-84
2023/10/18 00:59:40;;;;;;;;;;;7.10;48.80;;;5.73;53.09;101508.31;12266311;19;19956;-83
2023/10/18 01:03:46;;;;;;;;;;;7.20;48.90;;;5.68;53.15;101494.59;12267270;19;20474;-84
2023/10/18 01:07:52;;;;;;;;;;;7.10;48.90;;;5.75;53.37;101511.72;12264513;19;19923;-84
2023/10/18 01:11:54;;;;;;;;;;;7.00;48.80;;;5.69;53.21;101511.00;12265252;19;19915;-84
2023/10/18 01:15:56;;;;;;;;;;;7.00;48.80;;;5.52;53.16;101488.91;12265874;19;19915;-84
2023/10/18 01:19:58;;;;;;;;;;;7.20;48.80;;;5.60;53.24;101506.03;12262486;19;19918;-84
2023/10/18 01:24:00;;;;;;;;;;;7.00;48.80;;;5.58;53.07;101507.81;12265258;19;20012;-83
2023/10/18 01:28:05;;;;;;;;;;;6.90;48.80;;;5.54;53.18;101502.69;12261699;19;19919;-84
2023/10/18 01:32:07;;;;;;;;;;;6.90;48.80;;;5.39;53.18;101491.81;12266892;19;19919;-84
2023/10/18 01:36:11;;;;;;;;;;;6.90;48.70;;;5.41;53.38;101503.00;12264781;19;19914;-84
2023/10/18 01:40:41;;;;;;;;;;;6.80;48.70;;;5.33;53.22;101493.63;12259312;19;20600;-84
2023/10/18 01:44:42;;;;;;;;;;;6.80;48.60;;;4.96;53.36;101438.31;12262650;19;19926;-84
2023/10/18 01:48:50;;;;;;;;;;;6.70;48.60;;;5.16;53.45;101475.03;12258920;19;19918;-83
2023/10/18 01:52:52;;;;;;;;;;;6.70;48.70;;;5.23;53.39;101491.25;12261652;19;20330;-84
2023/10/18 01:56:57;;;;;;;;;;;6.60;48.60;;;4.85;53.25;101429.03;12263389;19;19971;-83
2023/10/18 02:01:01;;;;;;;;;;;6.50;48.70;;;5.13;53.21;101477.69;12259560;19;19990;-83
2023/10/18 02:05:05;;;;;;;;;;;6.50;48.70;;;5.11;53.27;101479.44;12261869;19;19979;-84
2023/10/18 02:09:10;;;;;;;;;;;6.50;48.70;;;5.05;53.22;101466.59;12260791;19;20227;-84
2023/10/18 02:13:13;;;;;;;;;;;6.40;48.60;;;4.81;53.39;101426.56;12263941;19;19937;-84
2023/10/18 02:17:18;;;;;;;;;;;6.40;48.70;;;5.01;53.21;101459.78;12262035;19;19918;-84
2023/10/18 02:21:21;;;;;;;;;;;6.40;48.80;;;4.95;53.44;101454.75;12259820;19;20344;-84
2023/10/18 02:29:44;;;;;;;;;;;6.50;48.80;;;4.83;53.41;101445.47;12258658;19;19918;-84
2023/10/18 02:33:46;;;;;;;;;;;6.30;48.70;;;4.80;53.24;101440.38;12260037;19;19955;-84
2023/10/18 02:37:48;;;;;;;;;;;6.20;48.70;;;4.81;53.31;101442.94;12260383;19;19946;-84
2023/10/18 02:41:51;;;;;;;;;;;6.20;48.70;;;4.84;53.43;101460.97;12257952;19;19917;-84
2023/10/18 02:45:52;;;;;;;;;;;6.20;48.80;;;4.59;53.28;101413.16;12258007;19;19983;-84
2023/10/18 02:49:54;;;;;;;;;;;6.20;48.80;;;4.84;53.34;101462.72;12256744;19;19915;-84
2023/10/18 02:54:07;;;;;;;;;;;6.10;48.80;;;4.73;53.46;101442.22;12260131;19;19922;-84
2023/10/18 02:58:09;;;;;;;;;;;6.20;48.90;;;4.70;53.27;101441.41;12258372;19;19952;-84
2023/10/18 03:02:14;;;;;;;;;;;6.20;48.90;;;4.75;53.35;101448.25;12258070;19;19907;-84
2023/10/18 03:06:16;;;;;;;;;;;6.20;48.80;;;4.71;53.35;101441.41;12259142;19;19934;-84
2023/10/18 03:10:32;;;;;;;;;;;6.10;48.80;;;4.58;53.44;101424.41;12258974;19;19929;-84
2023/10/18 03:14:55;;;;;;;;;;;6.10;48.80;;;4.72;53.40;101450.84;12257053;19;19932;-83
2023/10/18 03:18:59;;;;;;;;;;;6.10;48.80;;;4.65;53.33;101436.34;12255608;19;20330;-84
2023/10/18 03:23:02;;;;;;;;;;;6.30;48.90;;;4.67;53.39;101439.75;12258846;19;19929;-84
2023/10/18 03:27:08;;;;;;;;;;;6.10;48.80;;;4.70;53.46;101446.59;12256078;19;19915;-84
2023/10/18 03:31:29;;;;;;;;;;;6.10;48.80;;;4.66;53.46;101435.47;12255935;19;19918;-84
2023/10/18 03:35:32;;;;;;;;;;;6.00;48.70;;;4.54;53.41;101423.63;12256635;19;19915;-84
2023/10/18 03:39:33;;;;;;;;;;;6.00;48.70;;;4.39;53.57;101409.22;12254798;19;19915;-84
2023/10/18 03:43:36;;;;;;;;;;;6.00;48.70;;;4.50;53.39;101427.13;12255345;19;19952;-84
2023/10/18 03:47:38;;;;;;;;;;;5.90;48.70;;;4.44;53.42;101422.09;12253212;19;20257;-84
2023/10/18 03:51:40;;;;;;;;;;;5.90;48.80;;;4.36;53.47;101404.13;12255607;19;19919;-84
2023/10/18 03:55:45;;;;;;;;;;;5.90;48.80;;;4.43;53.46;101416.06;12255231;19;20210;-84
2023/10/18 03:59:48;;;;;;;;;;;5.90;48.80;;;4.36;53.62;101404.13;12252106;19;19919;-84
2023/10/18 04:03:50;;;;;;;;;;;5.90;48.80;;;4.48;53.45;101422.88;12252742;19;19919;-84
2023/10/18 04:07:52;;;;;;;;;;;5.90;48.90;;;4.37;53.69;101392.88;12249256;19;19922;-85
2023/10/18 04:11:54;;;;;;;;;;;5.90;48.90;;;4.51;53.67;101412.47;12255757;19;19915;-84
2023/10/18 04:16:11;;;;;;;;;;;5.90;48.90;;;4.44;53.63;101404.84;12250320;19;19915;-82
2023/10/18 04:24:17;;;;;;;;;;;5.90;48.80;;;4.37;53.71;101385.13;12253485;19;19998;-84
2023/10/18 04:28:19;;;;;;;;;;;5.90;48.80;;;4.46;53.64;101406.56;12251752;19;19918;-84
2023/10/18 04:32:23;;;;;;;;;;;5.90;48.90;;;4.11;53.43;101344.28;12247717;19;20444;-84
2023/10/18 04:36:24;;;;;;;;;;;5.90;48.80;;;4.08;53.46;101343.47;12243270;19;19990;-84
2023/10/18 04:40:26;;;;;;;;;;;5.80;48.80;;;4.27;53.45;101362.94;12248050;19;19907;-84
2023/10/18 04:44:27;;;;;;;;;;;5.90;48.80;;;4.39;53.71;101388.53;12248030;19;19936;-84
2023/10/18 04:52:50;;;;;;;;;;;5.80;48.80;;;4.32;53.61;101375.75;12248916;19;19950;-84
2023/10/18 04:56:56;;;;;;;;;;;5.80;48.80;;;4.22;53.72;101367.34;12246865;19;19919;-84
2023/10/18 05:00:57;;;;;;;;;;;6.00;48.90;;;4.14;53.70;101362.31;12244363;19;19919;-84
2023/10/18 05:05:01;;;;;;;;;;;5.80;48.80;;;4.28;53.60;101380.16;12245924;19;19923;-84
2023/10/18 05:09:12;;;;;;;;;;;5.80;48.80;;;4.28;53.72;101395.66;12244581;19;19918;-84
2023/10/18 05:13:32;;;;;;;;;;;5.80;48.70;;;4.24;53.65;101385.38;12249686;19;20294;-84
2023/10/18 05:17:38;;;;;;;;;;;5.70;48.70;;;4.14;53.63;101366.63;12247121;19;19915;-84
2023/10/18 05:21:40;;;;;;;;;;;5.70;48.80;;;4.05;53.63;101354.75;12244990;19;19919;-84
2023/10/18 05:25:45;;;;;;;;;;;5.70;48.80;;;4.16;53.61;101382.97;12251010;19;19926;-84
2023/10/18 05:29:52;;;;;;;;;;;5.70;48.70;;;3.97;53.92;101351.44;12254703;19;19950;-84
2023/10/18 05:34:02;;;;;;;;;;;5.80;48.80;;;3.99;53.69;101347.91;12257655;19;19911;-84
2023/10/18 05:38:18;;;;;;;;;;;5.70;48.70;;;4.06;53.74;101363.34;12259310;19;19944;-84
2023/10/18 05:42:21;;;;;;;;;;;5.70;48.70;;;4.09;53.51;101369.28;12259142;19;19923;-85
2023/10/18 05:46:27;;;;;;;;;;;5.70;48.70;;;4.01;53.70;101371.16;12257121;19;19923;-84
2023/10/18 05:50:34;;;;;;;;;;;5.70;48.70;;;4.04;53.77;101380.59;12258637;19;19919;-85
2023/10/18 05:54:36;;;;;;;;;;;5.70;48.70;;;3.66;53.66;101320.09;12258941;19;19930;-84
2023/10/18 05:58:37;;;;;;;;;;;5.90;48.80;;;4.11;53.62;101392.53;12259697;19;19932;-85
2023/10/18 06:02:39;;;;;;;;;;;5.60;48.70;;;4.07;53.58;101385.69;12261254;19;19960;-84
2023/10/18 06:06:43;;;;;;;;;;;5.60;48.80;;;4.10;53.59;101390.81;12258126;19;19922;-83
2023/10/18 06:10:44;;;;;;;;;;;5.60;48.70;;;3.96;53.60;101365.22;12253938;19;20255;-84
2023/10/18 06:14:46;;;;;;;;;;;5.60;48.60;;;4.05;53.61;101392.63;12257755;19;19914;-84
2023/10/18 06:18:49;;;;;;;;;;;5.60;48.50;;;3.94;53.57;101379.88;12256738;19;20329;-83
2023/10/18 06:22:53;;;;;;;;;;;5.70;48.50;;;3.94;53.63;101391.09;12258303;19;19918;-85
2023/10/18 06:26:55;;;;;;;;;;;5.50;48.50;;;3.86;53.60;101382.63;12253078;19;19915;-83
2023/10/18 06:30:57;;;;;;;;;;;5.70;48.60;;;3.74;53.59;101365.59;12244011;19;20277;-84
2023/10/18 06:34:58;;;;;;;;;;;5.40;48.50;;;3.86;53.81;101392.97;12258038;19;19950;-84
2023/10/18 06:39:00;;;;;;;;;;;5.40;48.60;;;3.83;53.61;101387.81;12248041;19;19918;-84
2023/10/18 06:43:03;;;;;;;;;;;5.40;48.70;;;3.53;53.63;101333.22;12251320;19;19919;-84
2023/10/18 06:47:06;;;;;;;;;;;5.40;48.70;;;3.83;53.62;101369.75;12245466;19;20354;-86
2023/10/18 06:51:17;;;;;;;;;;;5.40;48.80;;;3.53;53.74;101317.72;12240498;19;19930;-84
2023/10/18 06:55:35;;;;;;;;;;;5.40;48.80;;;3.68;53.74;101351.94;12244295;19;19918;-84
2023/10/18 06:59:37;;;;;;;;;;;5.40;48.70;;;3.54;53.74;101324.59;12244587;19;19915;-84
2023/10/18 07:03:42;;;;;;;;;;;5.40;48.80;;;3.70;53.87;101352.72;12246939;19;19926;-84
2023/10/18 07:07:45;;;;;;;;;;;5.30;48.70;;;3.65;53.91;101352.84;12243078;19;19923;-84
2023/10/18 07:11:48;;;;;;;;;;;5.30;48.80;;;3.58;53.94;101340.03;12246583;19;19929;-84
2023/10/18 07:15:50;;;;;;;;;;;5.30;49.00;;;3.44;53.87;101314.44;12247683;19;19943;-84
2023/10/18 07:19:58;;;;;;;;;;;5.40;49.10;;;3.52;54.04;101316.03;12244853;19;20019;-84
2023/10/18 07:24:09;;;;;;;;;;;5.40;49.20;;;3.91;54.13;101364.44;12247614;19;19962;-84
2023/10/18 07:28:10;;;;;;;;;;;5.40;49.30;;;3.96;54.00;101365.22;12242522;19;19939;-84
2023/10/18 07:32:15;;;;;;;;;;;5.80;49.60;;;4.05;54.21;101359.03;12243871;19;19911;-84
2023/10/18 07:36:19;;;;;;;;;;;5.60;49.50;;;4.09;54.17;101347.78;12244560;19;20250;-84
2023/10/18 07:40:21;;;;;;;;;;;5.70;49.60;;;4.02;54.22;101333.25;12242865;19;19978;-84
2023/10/18 07:44:23;;;;;;;;;;;6.00;49.70;;;4.24;54.33;101359.53;12242246;19;19907;-83
2023/10/18 07:48:27;;;;;;;;;;;5.80;49.70;;;4.32;54.13;101344.75;12237963;19;20342;-83
2023/10/18 07:52:28;;;;;;;;;;;5.90;49.80;;;4.12;54.50;101303.78;12244749;19;19979;-83
2023/10/18 07:56:31;;;;;;;;;;;6.00;50.00;;;4.49;54.57;101342.69;12242854;19;19923;-83
2023/10/18 08:00:32;;;;;;;;;;;6.30;50.20;;;4.57;54.53;101330.44;12241710;19;20328;-83
2023/10/18 08:04:36;;;;;;;;;;;6.20;50.30;;;4.78;54.50;101339.50;12241833;19;19915;-83
2023/10/18 08:08:41;;;;;;;;;;;6.40;50.60;;;4.62;54.46;101288.97;12239764;19;19922;-83
2023/10/18 08:12:43;;;;;;;;;;;6.50;50.90;;;5.11;54.58;101337.06;12241918;19;19922;-83
2023/10/18 08:16:44;;;;;;;;;;;6.70;51.00;;;5.26;54.77;101326.31;12247812;19;19918;-83
2023/10/18 08:24:50;;;;;;;;;;;7.10;51.50;;;5.59;54.98;101313.47;12248491;19;19978;-82
2023/10/18 08:28:53;;;;;;;;;;;7.40;51.70;;;5.87;54.97;101323.13;12244716;19;19926;-83
2023/10/18 08:32:55;;;;;;;;;;;7.50;51.90;;;6.09;54.88;101316.50;12245940;19;20373;-82
2023/10/18 08:37:04;;;;;;;;;;;7.70;52.00;;;6.09;55.15;101276.78;12247197;19;19919;-83
2023/10/18 08:41:13;;;;;;;;;;;8.10;52.30;;;6.58;55.00;101315.13;12239948;19;20588;-83
2023/10/18 08:45:21;;;;;;;;;;;8.20;52.50;;;6.79;55.13;101310.22;12243113;19;19934;-83
2023/10/18 08:49:23;;;;;;;;;;;8.50;52.60;;;7.00;55.16;101308.72;12239125;19;19949;-83
2023/10/18 08:53:26;;;;;;;;;;;8.70;52.60;;;7.25;55.24;101313.97;12243741;19;19933;-83
2023/10/18 08:57:37;;;;;;;;;;;9.00;53.30;;;7.28;55.21;101259.31;12243056;19;19922;-83
2023/10/18 09:01:58;;;;;;;;;;;9.20;53.30;;;7.69;55.55;101283.91;12253148;19;19918;-83
2023/10/18 09:06:05;;;;;;;;;;;9.50;53.00;;;8.03;55.75;101287.09;12243518;19;20596;-83
2023/10/18 09:10:13;;;;;;;;;;;9.80;53.40;;;8.41;55.58;101301.34;12252904;19;19923;-84
2023/10/18 09:14:15;;;;;;;;;;;10.10;53.10;;;8.62;55.70;101289.31;12255101;19;19923;-83
2023/10/18 09:18:18;;;;;;;;;;;10.40;53.80;;;8.92;55.65;101297.69;12253247;19;19914;-84
2023/10/18 09:22:19;;;;;;;;;;;10.70;53.40;;;9.18;55.94;101295.78;12253438;19;19951;-83
2023/10/18 09:26:26;;;;;;;;;;;11.00;53.20;;;9.40;55.78;101274.94;12241134;19;19926;-83
2023/10/18 09:30:28;;;;;;;;;;;11.30;53.10;;;9.67;55.89;101267.72;12248995;19;19918;-83
2023/10/18 09:34:38;;;;;;;;;;;11.50;53.10;;;9.99;55.74;101266.31;12250623;19;19989;-84
2023/10/18 09:38:41;;;;;;;;;;;11.80;53.10;;;10.18;55.69;101245.47;12253706;19;19918;-84
2023/10/18 09:42:44;;;;;;;;;;;12.00;52.60;;;10.47;55.78;101258.97;12252747;19;19936;-85
2023/10/18 09:46:49;;;;;;;;;;;12.30;52.50;;;10.66;55.79;101259.78;12242608;19;19932;-84
2023/10/18 09:50:50;;;;;;;;;;;12.50;52.60;;;10.87;55.84;101262.31;12247005;19;19986;-84
2023/10/18 09:54:59;;;;;;;;;;;12.70;52.40;;;11.00;55.65;101247.75;12254509;19;19974;-84
2023/10/18 09:59:05;;;;;;;;;;;12.90;52.30;;;11.29;55.79;101255.00;12253406;19;19914;-83
2023/10/18 10:03:12;;;;;;;;;;;13.00;52.10;;;11.43;55.67;101256.94;12252828;19;19918;-84
2023/10/18 10:07:37;;;;;;;;;;;13.20;51.90;;;11.59;55.72;101237.84;12249410;19;19915;-86
2023/10/18 10:11:43;;;;;;;;;;;13.40;51.80;;;11.64;55.80;101212.31;12250539;19;19923;-84
2023/10/18 10:15:54;;;;;;;;;;;13.60;51.90;;;11.90;55.79;101213.56;12253909;19;20326;-85
2023/10/18 10:20:15;;;;;;;;;;;13.80;51.80;;;12.10;55.85;101215.16;12249987;19;19911;-84
2023/10/18 10:24:30;;;;;;;;;;;14.00;51.70;;;12.41;55.80;101232.66;12254692;19;19922;-84
2023/10/18 10:33:23;;;;;;;;;;;14.30;51.30;;;12.73;55.52;101215.13;12252331;19;19914;-84
2023/10/18 10:37:28;;;;;;;;;;;14.50;50.80;;;12.92;55.53;101219.34;12248441;19;19938;-84
2023/10/18 10:41:31;;;;;;;;;;;14.70;50.80;;;13.02;55.45;101212.66;12253785;19;19918;-84
2023/10/18 10:45:37;;;;;;;;;;;14.70;50.80;;;13.17;55.51;101201.25;12252236;19;19918;-87
2023/10/18 10:49:47;;;;;;;;;;;14.90;50.80;;;13.33;55.37;101203.84;12254484;19;19935;-83
2023/10/18 10:53:57;;;;;;;;;;;15.00;50.60;;;13.38;55.51;101190.47;12256896;19;20474;-84
2023/10/18 10:58:01;;;;;;;;;;;15.10;50.50;;;13.55;55.36;101198.16;12257065;19;19949;-84
2023/10/18 11:02:21;;;;;;;;;;;15.20;50.40;;;13.60;55.30;101185.63;12253959;19;19915;-86
2023/10/18 11:06:24;;;;;;;;;;;15.30;50.30;;;13.74;55.21;101182.16;12251605;19;19918;-83
2023/10/18 11:10:27;;;;;;;;;;;15.40;50.20;;;13.76;55.28;101164.53;12250355;19;20271;-83
2023/10/18 11:14:29;;;;;;;;;;;15.50;48.80;;;13.92;55.16;101162.63;12247762;19;19915;-83
2023/10/18 11:18:34;;;;;;;;;;;15.60;49.90;;;13.98;55.16;101157.94;12241123;19;19948;-83
2023/10/18 11:22:41;;;;;;;;;;;15.60;50.10;;;14.06;54.90;101150.44;12248123;19;19915;-83
2023/10/18 11:26:42;;;;;;;;;;;15.90;49.20;;;14.08;55.00;101123.13;12240418;19;19919;-82
2023/10/18 11:30:45;;;;;;;;;;;15.80;49.50;;;14.25;54.91;101139.59;12243687;19;19918;-83
2023/10/18 11:34:47;;;;;;;;;;;15.80;49.40;;;14.33;54.87;101140.78;12242481;19;19918;-82
2023/10/18 11:43:08;;;;;;;;;;;15.90;49.80;;;14.45;54.83;101125.19;12244285;19;19941;-82
2023/10/18 11:47:19;;;;;;;;;;;16.00;49.60;;;14.49;54.70;101129.31;12241327;19;19927;-82
2023/10/18 11:51:21;;;;;;;;;;;16.20;49.40;;;14.51;54.67;101125.63;12238320;19;19930;-82
2023/10/18 11:55:22;;;;;;;;;;;16.00;48.90;;;14.56;54.51;101122.75;12241319;19;19934;-82
2023/10/18 11:59:25;;;;;;;;;;;16.10;48.70;;;14.59;54.55;101118.13;12239867;19;19919;-84
2023/10/18 12:03:33;;;;;;;;;;;16.10;49.20;;;14.67;54.40;101108.91;12241666;19;19929;-82
2023/10/18 12:07:36;;;;;;;;;;;16.20;49.30;;;14.60;54.47;101088.25;12239523;19;19923;-82
2023/10/18 12:11:37;;;;;;;;;;;16.20;48.90;;;14.71;54.34;101091.97;12238779;19;20503;-84
2023/10/18 12:15:39;;;;;;;;;;;16.20;49.00;;;14.73;54.28;101082.19;12243224;19;19983;-84
2023/10/18 12:19:42;;;;;;;;;;;16.20;48.80;;;14.86;54.22;101087.47;12241092;19;19956;-83
2023/10/18 12:23:44;;;;;;;;;;;16.30;48.80;;;14.79;54.18;101056.31;12245458;19;19929;-84
2023/10/18 12:27:52;;;;;;;;;;;16.30;49.00;;;14.93;54.18;101067.69;12243593;19;19922;-84
2023/10/18 12:31:54;;;;;;;;;;;16.40;48.70;;;14.96;54.06;101062.22;12248337;19;19922;-83
2023/10/18 12:36:00;;;;;;;;;;;16.40;48.50;;;14.89;54.15;101038.13;12257415;19;19915;-83
2023/10/18 12:40:12;;;;;;;;;;;16.40;48.40;;;14.97;53.92;101054.22;12265002;19;19929;-83
2023/10/18 12:44:18;;;;;;;;;;;16.40;47.20;;;15.03;54.02;101043.28;12266512;19;19921;-83
2023/10/18 12:48:23;;;;;;;;;;;16.40;47.80;;;15.03;53.74;101035.38;12265147;19;20382;-84
2023/10/18 12:56:38;;;;;;;;;;;16.40;48.50;;;14.92;53.85;100989.75;12270590;19;19919;-84
2023/10/18 13:00:45;;;;;;;;;;;16.40;47.70;;;15.13;53.85;101017.19;12270305;19;19971;-84
2023/10/18 13:04:50;;;;;;;;;;;16.50;47.90;;;15.02;53.74;100990.81;12267211;19;19918;-83
2023/10/18 13:13:16;;;;;;;;;;;16.50;47.80;;;15.20;53.45;101007.94;12270602;19;19923;-82
2023/10/18 13:17:18;;;;;;;;;;;16.50;48.20;;;15.14;53.60;100983.84;12265129;19;19911;-83
2023/10/18 13:21:20;;;;;;;;;;;16.50;46.60;;;15.17;53.42;100978.34;12261790;19;20308;-83
2023/10/18 13:25:26;;;;;;;;;;;16.60;47.90;;;15.24;53.66;100998.03;12267804;19;19919;-82
2023/10/18 13:33:29;;;;;;;;;;;16.50;46.50;;;15.13;53.30;100967.22;12266965;19;19918;-84
2023/10/18 13:37:30;;;;;;;;;;;16.60;47.90;;;15.23;53.36;100972.69;12264502;19;19927;-82
2023/10/18 13:41:31;;;;;;;;;;;16.50;47.80;;;15.21;53.33;100966.69;12268744;19;19922;-83
2023/10/18 13:45:33;;;;;;;;;;;16.50;47.80;;;15.09;53.13;100947.31;12263704;19;19943;-83
2023/10/18 13:49:35;;;;;;;;;;;16.50;47.20;;;15.18;53.11;100961.63;12253691;19;21942;-84
2023/10/18 13:53:37;;;;;;;;;;;16.50;47.90;;;15.16;53.15;100959.09;12259651;19;19921;-84
2023/10/18 13:57:38;;;;;;;;;;;16.50;47.70;;;15.13;52.99;100940.06;12255434;19;19938;-84
2023/10/18 14:01:41;;;;;;;;;;;16.50;46.70;;;15.17;53.17;100950.25;12257718;19;19919;-84
2023/10/18 14:05:45;;;;;;;;;;;16.50;47.80;;;15.19;52.93;100943.09;12255077;19;20261;-83
2023/10/18 14:09:47;;;;;;;;;;;16.40;47.40;;;15.11;53.09;100921.75;12255421;19;19939;-84
2023/10/18 14:13:49;;;;;;;;;;;16.50;47.60;;;15.14;52.93;100926.78;12255065;19;19921;-83
2023/10/18 14:17:54;;;;;;;;;;;16.40;46.70;;;15.14;53.03;100916.28;12258126;19;19923;-85
2023/10/18 14:21:56;;;;;;;;;;;16.40;47.30;;;15.09;52.68;100920.19;12255849;19;19919;-83
2023/10/18 14:26:00;;;;;;;;;;;16.40;47.50;;;15.14;52.81;100923.34;12256424;19;19923;-83
2023/10/18 14:30:03;;;;;;;;;;;16.40;47.50;;;15.10;52.91;100912.19;12253221;19;19978;-84
2023/10/18 14:34:05;;;;;;;;;;;16.30;47.80;;;14.97;52.69;100888.56;12255019;19;19974;-83
2023/10/18 14:38:12;;;;;;;;;;;16.30;47.90;;;15.00;52.87;100887.50;12258140;19;19915;-84
2023/10/18 14:42:14;;;;;;;;;;;16.30;47.90;;;15.05;52.79;100899.38;12257010;19;19922;-84
2023/10/18 14:46:17;;;;;;;;;;;16.30;47.70;;;14.97;52.78;100885.09;12252490;19;19915;-83
2023/10/18 14:50:19;;;;;;;;;;;16.20;47.00;;;14.96;52.63;100886.00;12251820;19;19937;-83
2023/10/18 14:54:20;;;;;;;;;;;16.20;47.80;;;14.92;52.63;100882.78;12251103;19;19926;-83
2023/10/18 14:58:23;;;;;;;;;;;16.20;47.70;;;14.72;52.45;100842.13;12250225;19;20253;-83
2023/10/18 15:02:25;;;;;;;;;;;16.10;47.90;;;14.82;52.52;100864.19;12252251;19;19914;-83
2023/10/18 15:06:26;;;;;;;;;;;16.10;48.10;;;14.85;52.60;100871.00;12253612;19;19983;-83
2023/10/18 15:10:28;;;;;;;;;;;16.10;48.10;;;14.70;52.44;100841.41;12253152;19;19915;-84
2023/10/18 15:14:32;;;;;;;;;;;16.00;48.30;;;14.77;52.56;100852.31;12252983;19;19923;-83
2023/10/18 15:18:34;;;;;;;;;;;16.00;47.80;;;14.69;52.68;100855.50;12254546;19;19914;-83
2023/10/18 15:22:35;;;;;;;;;;;15.90;48.00;;;14.68;52.42;100850.34;12252253;19;20265;-83
2023/10/18 15:26:38;;;;;;;;;;;15.90;48.00;;;14.44;52.43;100822.16;12253670;19;19919;-82
2023/10/18 15:30:39;;;;;;;;;;;15.80;48.10;;;14.59;52.48;100847.41;12247958;19;19929;-83
2023/10/18 15:34:41;;;;;;;;;;;15.70;48.30;;;14.56;52.29;100849.41;12249966;19;19919;-83
2023/10/18 15:38:45;;;;;;;;;;;15.70;48.60;;;14.47;52.28;100837.69;12248550;19;19918;-83
2023/10/18 15:42:46;;;;;;;;;;;15.60;48.20;;;14.43;52.26;100844.13;12247812;19;19926;-83
2023/10/18 15:46:48;;;;;;;;;;;15.60;48.40;;;14.28;52.17;100824.16;12249335;19;19907;-81
2023/10/18 15:50:51;;;;;;;;;;;15.40;48.40;;;14.13;52.24;100805.91;12245215;19;19952;-84
2023/10/18 15:54:54;;;;;;;;;;;15.40;48.40;;;14.11;52.16;100820.91;12249989;19;19947;-84
2023/10/18 15:58:58;;;;;;;;;;;15.30;48.40;;;14.01;52.06;100806.72;12246361;19;19915;-82
2023/10/18 16:03:00;;;;;;;;;;;15.10;48.40;;;13.84;52.12;100793.94;12248217;19;19968;-84
2023/10/18 16:07:01;;;;;;;;;;;15.00;48.40;;;13.74;52.14;100785.81;12240241;19;19915;-84
2023/10/18 16:11:03;;;;;;;;;;;14.90;48.40;;;13.72;52.12;100801.69;12223130;19;19943;-84
2023/10/18 16:15:05;;;;;;;;;;;14.80;48.50;;;13.61;52.03;100795.47;12206878;19;19923;-84
2023/10/18 16:19:10;;;;;;;;;;;14.70;48.40;;;13.41;51.97;100783.69;12245819;19;19931;-84
2023/10/18 16:23:11;;;;;;;;;;;14.60;48.50;;;13.42;52.15;100798.47;12233024;19;20293;-84
2023/10/18 16:27:12;;;;;;;;;;;14.50;48.50;;;13.12;52.01;100757.53;12244333;19;19923;-83
2023/10/18 16:31:14;;;;;;;;;;;14.40;48.60;;;13.24;51.91;100780.34;12244332;19;19919;-84
2023/10/18 16:35:16;;;;;;;;;;;14.30;48.50;;;13.13;51.97;100782.84;12247139;19;19927;-83
2023/10/18 16:39:18;;;;;;;;;;;14.10;48.50;;;13.02;51.92;100787.94;12244627;19;20390;-83
2023/10/18 16:43:20;;;;;;;;;;;14.00;48.40;;;12.91;51.84;100787.75;12244277;19;19929;-83
2023/10/18 16:47:22;;;;;;;;;;;13.90;48.50;;;12.75;52.01;100770.41;12243125;19;20227;-83
2023/10/18 16:51:25;;;;;;;;;;;13.80;48.50;;;12.65;51.93;100766.69;12246182;19;19944;-84
2023/10/18 16:55:27;;;;;;;;;;;13.70;48.60;;;12.45;52.03;100746.13;12239273;19;19939;-83
2023/10/18 16:59:28;;;;;;;;;;;13.60;48.60;;;12.42;51.94;100756.81;12242863;19;19926;-83
2023/10/18 17:03:29;;;;;;;;;;;13.70;48.70;;;12.32;51.95;100751.31;12241129;19;19918;-83
2023/10/18 17:07:31;;;;;;;;;;;13.40;48.70;;;12.21;52.03;100744.13;12240716;19;19927;-83
2023/10/18 17:11:33;;;;;;;;;;;13.30;48.60;;;12.22;51.92;100758.91;12246009;19;19923;-83
2023/10/18 17:15:36;;;;;;;;;;;13.20;48.60;;;12.12;51.90;100763.00;12244163;19;19915;-82
2023/10/18 17:19:40;;;;;;;;;;;13.20;48.70;;;11.95;52.02;100745.72;12242780;19;19919;-83
2023/10/18 17:23:41;;;;;;;;;;;13.20;48.80;;;11.97;51.83;100753.50;12255177;19;20340;-84
2023/10/18 17:27:45;;;;;;;;;;;13.00;48.80;;;11.67;51.97;100709.88;12254290;19;19922;-83
2023/10/18 17:31:46;;;;;;;;;;;13.00;48.80;;;11.81;51.99;100735.22;12255556;19;20545;-84
2023/10/18 17:35:48;;;;;;;;;;;12.80;48.70;;;11.69;51.91;100721.94;12256525;19;19982;-84
2023/10/18 17:39:49;;;;;;;;;;;12.70;48.70;;;11.52;52.13;100709.00;12251019;19;19910;-83
2023/10/18 17:43:51;;;;;;;;;;;12.60;48.80;;;11.59;52.10;100733.03;12255107;19;19919;-84
2023/10/18 17:47:53;;;;;;;;;;;12.60;48.80;;;11.51;51.81;100733.50;12251714;19;19957;-84
2023/10/18 17:51:54;;;;;;;;;;;12.50;48.80;;;11.46;52.13;100732.91;12240598;19;19919;-83
2023/10/18 17:55:58;;;;;;;;;;;12.40;48.80;;;11.32;52.07;100702.34;12253015;19;20338;-84
2023/10/18 18:00:06;;;;;;;;;;;12.40;48.90;;;11.23;52.22;100710.72;12250289;19;20359;-83
2023/10/18 18:04:13;;;;;;;;;;;12.30;48.90;;;11.12;51.97;100695.66;12243460;19;19986;-84
2023/10/18 18:08:22;;;;;;;;;;;12.20;48.80;;;10.96;51.87;100680.03;12249093;19;19918;-83
2023/10/18 18:12:23;;;;;;;;;;;12.10;48.80;;;10.81;52.03;100673.09;12252876;19;19920;-84
2023/10/18 18:16:27;;;;;;;;;;;12.10;48.90;;;10.96;52.02;100703.53;12248403;19;19922;-83
2023/10/18 18:20:30;;;;;;;;;;;12.00;48.90;;;10.89;52.00;100702.22;12247848;19;19919;-83
2023/10/18 18:24:31;;;;;;;;;;;11.90;48.90;;;10.73;52.12;100680.50;12251580;19;19952;-83
2023/10/18 18:28:33;;;;;;;;;;;11.80;48.80;;;10.72;52.11;100686.66;12248419;19;19915;-83
2023/10/18 18:32:35;;;;;;;;;;;11.80;48.90;;;10.68;52.15;100693.81;12247437;19;19918;-83
2023/10/18 18:36:37;;;;;;;;;;;11.70;48.80;;;10.62;52.00;100688.94;12251817;19;19931;-83
2023/10/18 18:40:38;;;;;;;;;;;11.60;48.90;;;10.61;52.19;100692.47;12244441;19;20321;-83
2023/10/18 18:44:39;;;;;;;;;;;11.60;48.90;;;10.35;52.25;100654.78;12251643;19;19914;-83
2023/10/18 18:48:41;;;;;;;;;;;11.50;49.00;;;10.37;52.29;100663.38;12248720;19;20325;-83
2023/10/18 18:52:45;;;;;;;;;;;11.50;49.00;;;10.29;52.21;100655.97;12248675;19;20501;-83
2023/10/18 18:56:46;;;;;;;;;;;11.40;49.00;;;10.39;52.25;100679.78;12248147;19;19923;-83
2023/10/18 19:00:48;;;;;;;;;;;11.40;49.00;;;10.25;52.14;100658.78;12247100;19;19978;-83
2023/10/18 19:04:49;;;;;;;;;;;11.40;49.10;;;10.32;52.20;100661.00;12249245;19;19990;-82
2023/10/18 19:08:51;;;;;;;;;;;11.30;49.10;;;10.26;52.24;100655.25;12245673;19;19914;-83